createdAt,value
2023-03-11T14:44:42.294Z,6.72
2023-03-11T14:47:11.580Z,7.31
2023-03-11T14:49:39.799Z,7.54
2023-03-11T14:52:10.689Z,8.05
2023-03-11T14:54:37.906Z,7.04
2023-03-11T14:57:06.393Z,6.70
2023-03-11T14:59:33.680Z,7.09
2023-03-11T15:02:06.917Z,6.58
2023-03-11T15:04:34.862Z,7.01
2023-03-11T15:07:02.093Z,7.15
2023-03-11T15:09:29.404Z,7.12
2023-03-11T15:11:57.181Z,7.10
2023-03-11T15:14:25.143Z,6.73
2023-03-11T15:16:52.380Z,6.59
2023-03-11T15:19:31.188Z,6.81
2023-03-11T15:21:59.196Z,6.71
2023-03-11T15:24:27.841Z,6.36
2023-03-11T15:26:56.749Z,6.47
2023-03-11T15:29:24.390Z,6.89
2023-03-11T15:31:51.762Z,6.80
2023-03-11T15:34:22.701Z,6.57
2023-03-11T15:37:04.740Z,6.72
2023-03-11T15:39:42.666Z,6.51
2023-03-11T15:42:15.107Z,6.50
2023-03-11T15:44:42.903Z,6.70
2023-03-11T15:47:12.192Z,6.50
2023-03-11T15:49:39.352Z,6.33
2023-03-11T15:52:08.161Z,6.24
2023-03-11T15:54:35.432Z,6.35
2023-03-11T15:57:02.699Z,6.28
2023-03-11T15:59:29.967Z,6.08
2023-03-11T16:01:57.126Z,6.17
2023-03-11T16:04:24.371Z,6.69
2023-03-11T16:07:02.883Z,6.67
2023-03-11T16:09:35.425Z,6.24
2023-03-11T16:12:02.726Z,6.17
2023-03-11T16:14:29.959Z,6.51
2023-03-11T16:16:57.215Z,6.72
2023-03-11T16:19:24.409Z,6.68
2023-03-11T16:21:51.609Z,6.24
2023-03-11T16:24:19.710Z,6.36
2023-03-11T16:26:48.305Z,6.53
2023-03-11T16:29:19.319Z,6.45
2023-03-11T16:31:47.242Z,6.12
2023-03-11T16:34:14.546Z,6.12
2023-03-11T16:36:42.328Z,5.97
2023-03-11T16:39:10.210Z,6.15
2023-03-11T16:41:40.896Z,6.34
2023-03-11T16:44:09.964Z,6.24
2023-03-11T16:46:37.585Z,6.31
2023-03-11T16:49:05.831Z,6.13
2023-03-11T16:51:33.362Z,6.37
2023-03-11T16:54:01.598Z,6.60
2023-03-11T16:56:29.224Z,6.28
2023-03-11T16:58:56.372Z,6.46
2023-03-11T17:01:25.094Z,6.45
2023-03-11T17:03:53.849Z,6.59
2023-03-11T17:06:21.237Z,6.46
2023-03-11T17:08:49.445Z,6.37
2023-03-11T17:11:17.515Z,6.76
2023-03-11T17:13:44.678Z,6.28
2023-03-11T17:16:12.043Z,6.34
2023-03-11T17:18:40.935Z,6.32
2023-03-11T17:21:08.644Z,6.50
2023-03-11T17:23:36.005Z,6.19
2023-03-11T17:26:03.305Z,6.69
2023-03-11T17:28:30.484Z,6.13
2023-03-11T17:30:57.870Z,6.37
2023-03-11T17:33:25.065Z,6.12
2023-03-11T17:36:01.323Z,6.08
2023-03-11T17:38:28.561Z,6.12
2023-03-11T17:40:55.691Z,6.33
2023-03-11T17:43:22.903Z,5.96
2023-03-11T17:45:50.062Z,5.91
2023-03-11T17:48:17.186Z,5.79
2023-03-11T17:50:44.314Z,5.72
2023-03-11T17:53:12.893Z,5.84
2023-03-11T17:55:40.022Z,5.87
2023-03-11T17:58:07.251Z,5.85
2023-03-11T18:00:34.351Z,5.94
2023-03-11T18:03:01.565Z,5.93
2023-03-11T18:05:28.737Z,6.12
2023-03-11T18:07:55.977Z,6.03
2023-03-11T18:10:24.613Z,6.38
2023-03-11T18:12:51.894Z,6.11
2023-03-11T18:15:19.368Z,6.06
2023-03-11T18:17:46.985Z,6.24
2023-03-11T18:20:14.143Z,5.99
2023-03-11T18:22:44.397Z,6.29
2023-03-11T18:25:13.147Z,6.34
2023-03-11T18:27:41.704Z,5.68
2023-03-11T18:30:10.314Z,5.89
2023-03-11T18:32:37.482Z,6.01
2023-03-11T18:35:07.668Z,5.82
2023-03-11T18:37:34.891Z,6.29
2023-03-11T18:40:02.089Z,5.95
2023-03-11T18:42:29.504Z,6.01
2023-03-11T18:44:58.213Z,5.93
2023-03-11T18:47:25.347Z,5.90
2023-03-11T18:49:53.135Z,6.03
2023-03-11T18:52:20.268Z,6.06
2023-03-11T18:54:47.389Z,6.11
2023-03-11T18:57:14.606Z,6.25
2023-03-11T18:59:41.988Z,6.47
2023-03-11T19:02:11.027Z,6.08
2023-03-11T19:04:38.235Z,6.16
2023-03-11T19:07:05.483Z,6.49
2023-03-11T19:09:32.775Z,6.66
2023-03-11T19:11:59.952Z,6.79
2023-03-11T19:14:27.110Z,6.74
2023-03-11T19:16:54.313Z,6.20
2023-03-11T19:19:22.974Z,6.68
2023-03-11T19:21:50.107Z,6.57
2023-03-11T19:24:17.443Z,6.40
2023-03-11T19:26:46.090Z,6.19
2023-03-11T19:29:13.745Z,6.41
2023-03-11T19:31:40.814Z,6.47
2023-03-11T19:34:08.001Z,6.16
2023-03-11T19:36:36.555Z,6.34
2023-03-11T19:39:04.890Z,6.22
2023-03-11T19:41:32.058Z,6.02
2023-03-11T19:43:59.153Z,5.93
2023-03-11T19:46:26.455Z,6.21
2023-03-11T19:48:53.683Z,5.89
2023-03-11T19:51:20.819Z,5.99
2023-03-11T19:53:49.370Z,6.04
2023-03-11T19:56:16.546Z,6.14
2023-03-11T19:58:43.649Z,6.00
2023-03-11T20:01:16.119Z,6.03
2023-03-11T20:03:43.352Z,6.24
2023-03-11T20:06:10.631Z,6.65
2023-03-11T20:08:37.873Z,6.85
2023-03-11T20:11:06.917Z,6.92
2023-03-11T20:13:34.166Z,6.62
2023-03-11T20:16:05.978Z,6.45
2023-03-11T20:18:33.231Z,6.55
2023-03-11T20:21:01.696Z,6.87
2023-03-11T20:23:28.862Z,6.94
2023-03-11T20:25:56.259Z,6.93
2023-03-11T20:28:24.966Z,6.50
2023-03-11T20:30:52.215Z,6.29
2023-03-11T20:33:19.467Z,6.80
2023-03-11T20:35:46.753Z,6.72
2023-03-11T20:38:14.135Z,6.66
2023-03-11T20:40:41.410Z,6.84
2023-03-11T20:43:08.655Z,6.62
2023-03-11T20:45:37.212Z,6.44
2023-03-11T20:48:04.465Z,6.33
2023-03-11T20:50:31.623Z,6.77
2023-03-11T20:52:58.918Z,6.57
2023-03-11T20:55:26.130Z,6.32
2023-03-11T20:57:53.446Z,6.23
2023-03-11T21:00:21.299Z,6.47
2023-03-11T21:02:50.102Z,6.39
2023-03-11T21:05:17.572Z,6.71
2023-03-11T21:07:44.860Z,6.93
2023-03-11T21:10:13.003Z,7.00
2023-03-11T21:12:40.210Z,6.82
2023-03-11T21:15:08.320Z,6.84
2023-03-11T21:17:35.976Z,6.31
2023-03-11T21:20:05.177Z,6.60
2023-03-11T21:22:32.537Z,6.96
2023-03-11T21:24:59.910Z,6.80
